Time;durP1;ratioP1;P1;durP2;ratioP2;P2;SDS_P1;SDS_P2;PMS_P1;PMS_P2;Temp;Humidity;BMP_temperature;BMP_pressure;BME280_temperature;BME280_humidity;BME280_pressure;Samples;Min_cycle;Max_cycle;Signal;HPM_P1;HPM_P2
2021/10/13 00:01:41;;;;;;;78.20;34.80;;;;;;;6.23;100.00;97830.88;5031583;28;20025;-75
2021/10/13 00:04:07;;;;;;;75.75;37.00;;;;;;;6.30;100.00;97821.38;5030902;28;20024;-74
2021/10/13 00:06:32;;;;;;;58.60;35.20;;;;;;;6.45;100.00;97824.06;5030336;28;20030;-75
2021/10/13 00:08:58;;;;;;;93.30;32.22;;;;;;;6.40;100.00;97821.38;5030190;28;20029;-74
2021/10/13 00:11:23;;;;;;;85.13;32.53;;;;;;;6.37;100.00;97816.47;5030258;28;20482;-74
2021/10/13 00:13:49;;;;;;;126.32;34.08;;;;;;;6.33;100.00;97826.25;5030167;28;20120;-74
2021/10/13 00:16:15;;;;;;;54.40;30.67;;;;;;;6.38;100.00;97820.03;5029917;28;20029;-75
2021/10/13 00:18:40;;;;;;;78.50;33.88;;;;;;;6.41;100.00;97828.44;5030276;28;20060;-74
2021/10/13 00:21:06;;;;;;;101.63;32.40;;;;;;;6.34;100.00;97817.03;5030175;28;20041;-76
2021/10/13 00:23:32;;;;;;;80.75;29.67;;;;;;;6.15;100.00;97823.25;5030407;28;20029;-74
2021/10/13 00:25:57;;;;;;;132.30;33.15;;;;;;;6.08;100.00;97820.81;5030043;28;20025;-75
2021/10/13 00:28:23;;;;;;;102.35;30.63;;;;;;;6.02;100.00;97813.75;5030240;28;20482;-75
2021/10/13 00:30:48;;;;;;;60.58;28.90;;;;;;;6.11;100.00;97806.69;5030104;28;20025;-74
2021/10/13 00:33:13;;;;;;;77.72;29.70;;;;;;;6.10;100.00;97802.34;5030301;28;20029;-74
2021/10/13 00:35:39;;;;;;;65.20;29.65;;;;;;;6.03;100.00;97787.41;5030333;28;20031;-74
2021/10/13 00:38:04;;;;;;;104.38;32.88;;;;;;;6.10;100.00;97799.66;5031086;28;20029;-74
2021/10/13 00:40:30;;;;;;;89.93;33.30;;;;;;;6.12;100.00;97791.22;5033733;28;20467;-74
2021/10/13 00:42:57;;;;;;;95.50;36.75;;;;;;;6.21;100.00;97806.69;5033792;28;20037;-74
2021/10/13 00:45:22;;;;;;;85.30;33.60;;;;;;;6.20;100.00;97799.63;5033706;28;20104;-74
2021/10/13 00:47:48;;;;;;;101.93;32.80;;;;;;;6.14;100.00;97811.56;5033925;28;20205;-75
2021/10/13 00:50:14;;;;;;;63.25;31.65;;;;;;;6.21;100.00;97809.41;5033710;28;20025;-75
2021/10/13 00:52:42;;;;;;;62.05;31.35;;;;;;;6.23;100.00;97804.53;5034194;28;20501;-74
2021/10/13 00:55:10;;;;;;;99.45;32.80;;;;;;;6.25;100.00;97799.66;5033755;28;20048;-75
2021/10/13 00:57:36;;;;;;;60.00;31.15;;;;;;;6.27;100.00;97805.63;5033689;28;20026;-74
2021/10/13 01:00:03;;;;;;;68.38;29.42;;;;;;;6.26;100.00;97808.63;5033611;28;20022;-74
2021/10/13 01:02:41;;;;;;;56.22;31.35;;;;;;;6.37;100.00;97805.63;5034725;28;20025;-75
2021/10/13 01:05:19;;;;;;;62.35;31.67;;;;;;;6.43;100.00;97799.09;5037001;28;20100;-76
2021/10/13 01:07:56;;;;;;;63.47;30.80;;;;;;;6.44;100.00;97805.34;5036581;28;20036;-76
2021/10/13 01:10:26;;;;;;;69.13;30.75;;;;;;;6.44;100.00;97805.34;5035821;28;20090;-75
2021/10/13 01:13:23;;;;;;;87.97;31.10;;;;;;;6.44;100.00;97800.72;5034326;28;20037;-74
2021/10/13 01:15:59;;;;;;;68.88;31.73;;;;;;;6.42;100.00;97802.88;5032985;28;20061;-74
2021/10/13 01:18:34;;;;;;;117.10;32.00;;;;;;;6.44;100.00;97803.44;5032874;28;20026;-74
2021/10/13 01:21:06;;;;;;;;;;;;;;;6.42;100.00;97802.88;5033381;28;20030;-74
2021/10/13 01:23:49;;;;;;;64.85;28.15;;;;;;;6.44;100.00;97799.91;5033384;28;19913;-74
2021/10/13 01:26:31;;;;;;;97.45;28.60;;;;;;;6.44;100.00;97798.03;5032789;28;20433;-73
2021/10/13 01:29:01;;;;;;;65.82;28.23;;;;;;;6.41;100.00;97804.00;5033072;28;20056;-74
2021/10/13 01:31:32;;;;;;;58.10;27.95;;;;;;;6.40;100.00;97805.06;5033540;28;20432;-73
2021/10/13 01:34:01;;;;;;;52.08;28.77;;;;;;;6.38;100.00;97793.69;5032905;28;20087;-73
2021/10/13 01:36:45;;;;;;;52.47;27.45;;;;;;;6.28;100.00;97796.38;5032933;28;20091;-75
2021/10/13 01:39:12;;;;;;;51.58;28.40;;;;;;;6.28;100.00;97804.53;5032742;28;20069;-74
2021/10/13 01:41:40;;;;;;;49.25;28.27;;;;;;;6.38;100.00;97787.44;5032729;28;20087;-74
2021/10/13 01:44:10;;;;;;;71.13;29.25;;;;;;;6.35;100.00;97780.63;5032576;28;20032;-74
2021/10/13 01:46:35;;;;;;;69.22;30.02;;;;;;;6.32;100.00;97786.63;5032558;28;20033;-73
2021/10/13 01:49:06;;;;;;;66.18;32.13;;;;;;;6.26;100.00;97790.44;5032508;28;20136;-73
2021/10/13 01:51:32;;;;;;;54.92;29.95;;;;;;;6.24;100.00;97784.44;5031962;28;20024;-73
2021/10/13 01:54:00;;;;;;;61.72;27.95;;;;;;;6.34;100.00;97779.00;5032666;28;20124;-76
2021/10/13 01:56:27;;;;;;;53.28;27.63;;;;;;;6.26;100.00;97773.31;5032324;28;20057;-75
2021/10/13 01:58:58;;;;;;;41.67;25.83;;;;;;;6.21;100.00;97765.97;5032331;28;20033;-74
2021/10/13 02:01:30;;;;;;;52.63;25.42;;;;;;;6.24;100.00;97773.56;5030759;28;20033;-74
2021/10/13 02:04:00;;;;;;;45.40;25.95;;;;;;;6.22;100.00;97764.06;5032140;28;20095;-74
2021/10/13 02:06:29;;;;;;;60.13;27.08;;;;;;;6.26;100.00;97765.97;5032168;28;20103;-74
2021/10/13 02:08:56;;;;;;;50.63;25.98;;;;;;;6.27;100.00;97770.31;5032102;28;20033;-74
2021/10/13 02:11:31;;;;;;;53.88;25.77;;;;;;;6.31;100.00;97762.44;5030361;28;20475;-76
2021/10/13 02:13:59;;;;;;;;;;;;;;;6.31;100.00;97765.97;5032407;28;20041;-74
2021/10/13 02:16:27;;;;;;;42.08;24.08;;;;;;;6.32;100.00;97759.47;5031954;28;20386;-73
2021/10/13 02:18:55;;;;;;;60.75;27.85;;;;;;;6.30;100.00;97756.19;5031974;28;20433;-75
2021/10/13 02:21:22;;;;;;;47.83;25.05;;;;;;;6.29;100.00;97770.06;5030874;28;20051;-73
2021/10/13 02:23:50;;;;;;;53.75;26.48;;;;;;;6.28;100.00;97785.53;5031679;28;20112;-73
2021/10/13 02:26:26;;;;;;;52.05;25.45;;;;;;;6.28;100.00;97774.66;5032088;28;20057;-73
2021/10/13 02:28:57;;;;;;;47.22;24.17;;;;;;;6.28;100.00;97774.66;5031439;28;20038;-74
2021/10/13 02:31:24;;;;;;;46.25;22.83;;;;;;;6.20;100.00;97772.47;5031548;28;20026;-74
2021/10/13 02:33:49;;;;;;;46.08;25.05;;;;;;;6.23;100.00;97777.38;5031351;28;20443;-74
2021/10/13 02:36:15;;;;;;;41.05;23.95;;;;;;;6.22;100.00;97781.19;5031620;28;20108;-77
2021/10/13 02:38:40;;;;;;;41.00;25.48;;;;;;;6.22;100.00;97773.03;5031626;28;20454;-78
2021/10/13 02:41:06;;;;;;;40.92;23.65;;;;;;;6.24;100.00;97773.56;5031788;28;20028;-77
2021/10/13 02:43:31;;;;;;;46.15;23.75;;;;;;;6.18;100.00;97774.66;5031381;28;20044;-76
2021/10/13 02:46:02;;;;;;;50.28;22.77;;;;;;;6.15;100.00;97780.63;5031322;28;20018;-74
2021/10/13 02:48:33;;;;;;;44.63;23.33;;;;;;;6.06;100.00;97776.81;5031490;28;20524;-75
2021/10/13 02:50:59;;;;;;;65.80;25.30;;;;;;;6.04;100.00;97780.91;5031751;28;20072;-78
2021/10/13 02:53:34;;;;;;;48.90;24.63;;;;;;;6.19;100.00;97792.59;5032640;28;20071;-79
2021/10/13 02:56:06;;;;;;;60.60;24.00;;;;;;;6.23;100.00;97795.56;5034033;28;20053;-75
2021/10/13 02:59:09;;;;;;;46.30;26.33;;;;;;;6.31;100.00;97792.31;5030066;28;20041;-77
2021/10/13 03:01:39;;;;;;;55.13;26.42;;;;;;;6.34;100.00;97803.44;5030521;28;20091;-75
2021/10/13 03:04:09;;;;;;;62.35;23.02;;;;;;;6.31;100.00;97803.16;5030949;28;20083;-75
2021/10/13 03:06:43;;;;;;;50.80;23.80;;;;;;;6.27;100.00;97800.19;5031528;28;20105;-74
2021/10/13 03:09:10;;;;;;;44.72;23.80;;;;;;;6.25;100.00;97791.50;5031467;28;20497;-73
2021/10/13 03:11:37;;;;;;;45.00;22.52;;;;;;;6.16;100.00;97798.56;5031533;28;20033;-73
2021/10/13 03:14:06;;;;;;;38.55;19.35;;;;;;;6.02;100.00;97802.06;5022533;28;20033;-75
2021/10/13 03:16:33;;;;;;;37.30;21.02;;;;;;;6.06;100.00;97797.72;5010992;28;20045;-73
2021/10/13 03:19:00;;;;;;;37.00;21.35;;;;;;;6.07;100.00;97813.75;5020366;28;20029;-74
2021/10/13 03:21:30;;;;;;;46.70;22.25;;;;;;;6.04;100.00;97821.63;5030445;28;20510;-74
2021/10/13 03:23:55;;;;;;;38.65;20.63;;;;;;;5.96;100.00;97827.56;5031052;28;20037;-75
2021/10/13 03:26:21;;;;;;;35.38;19.65;;;;;;;5.89;100.00;97819.69;5030864;28;20029;-73
2021/10/13 03:28:46;;;;;;;37.63;19.40;;;;;;;5.89;100.00;97825.09;5030545;28;20060;-74
2021/10/13 03:31:11;;;;;;;33.28;18.25;;;;;;;5.82;100.00;97819.13;5020512;28;20057;-73
2021/10/13 03:33:38;;;;;;;40.47;19.60;;;;;;;5.88;100.00;97818.06;5011208;28;20034;-74
2021/10/13 03:36:05;;;;;;;41.33;19.50;;;;;;;5.74;100.00;97812.28;5011866;28;20132;-73
2021/10/13 03:38:31;;;;;;;42.30;20.27;;;;;;;5.70;100.00;97802.25;5011627;28;20034;-74
2021/10/13 03:40:57;;;;;;;37.38;20.98;;;;;;;5.85;100.00;97815.88;5011574;28;20029;-74
2021/10/13 03:43:23;;;;;;;39.65;21.00;;;;;;;5.82;100.00;97805.53;5011925;28;20368;-75
2021/10/13 03:45:49;;;;;;;41.47;22.02;;;;;;;5.87;100.00;97809.09;5046020;28;20025;-75
2021/10/13 03:48:14;;;;;;;42.60;20.13;;;;;;;5.88;100.00;97813.47;5015814;28;20053;-75
2021/10/13 03:50:40;;;;;;;37.78;21.85;;;;;;;5.89;100.00;97825.09;5015907;28;20503;-74
2021/10/13 03:53:05;;;;;;;40.08;20.42;;;;;;;5.86;100.00;97812.06;5011096;28;20041;-74
2021/10/13 03:55:30;;;;;;;34.40;20.52;;;;;;;5.94;100.00;97825.13;5010640;28;20503;-74
2021/10/13 03:57:56;;;;;;;35.97;22.05;;;;;;;6.00;100.00;97834.91;5020764;28;20029;-74
2021/10/13 04:00:22;;;;;;;37.17;19.73;;;;;;;6.02;100.00;97846.31;5030015;28;20497;-74
2021/10/13 04:02:48;;;;;;;37.83;20.70;;;;;;;6.04;100.00;97844.16;5029328;28;20363;-73
2021/10/13 04:05:14;;;;;;;34.10;20.38;;;;;;;6.10;100.00;97842.25;5030086;28;20029;-74
2021/10/13 04:07:40;;;;;;;38.80;20.80;;;;;;;6.09;100.00;97841.44;5028725;28;20033;-75
2021/10/13 04:10:08;;;;;;;38.88;20.35;;;;;;;6.07;100.00;97826.50;5030547;28;20388;-75
2021/10/13 04:12:35;;;;;;;42.22;21.27;;;;;;;6.03;100.00;97837.09;5030245;28;20123;-74
2021/10/13 04:15:00;;;;;;;36.33;20.67;;;;;;;5.95;100.00;97834.91;5034364;28;20151;-74
2021/10/13 04:17:26;;;;;;;44.95;22.80;;;;;;;5.94;100.00;97830.56;5036162;28;20116;-75
2021/10/13 04:19:52;;;;;;;44.40;24.58;;;;;;;5.95;100.00;97834.91;5034280;28;20756;-74
2021/10/13 04:22:17;;;;;;;51.63;22.42;;;;;;;5.89;100.00;97835.97;5034448;28;20049;-75
2021/10/13 04:24:42;;;;;;;46.22;22.02;;;;;;;5.78;100.00;97828.88;5035344;28;20029;-73
2021/10/13 04:27:08;;;;;;;73.03;38.67;;;;;;;5.81;100.00;97834.56;5034707;28;20021;-77
2021/10/13 04:29:33;;;;;;;64.97;32.70;;;;;;;5.87;100.00;97835.44;5033655;28;20014;-78
2021/10/13 04:31:59;;;;;;;47.85;25.33;;;;;;;5.91;100.00;97841.97;5033325;28;20110;-77
2021/10/13 04:34:24;;;;;;;53.47;27.48;;;;;;;5.92;100.00;97840.84;5033908;28;20060;-77
2021/10/13 04:36:50;;;;;;;42.45;22.42;;;;;;;5.93;100.00;97843.31;5033468;28;20032;-76
2021/10/13 04:39:15;;;;;;;60.75;23.77;;;;;;;5.92;100.00;97846.28;5033583;28;20378;-77
2021/10/13 04:41:40;;;;;;;39.10;21.48;;;;;;;5.88;100.00;97850.63;5033936;28;20040;-75
2021/10/13 04:44:06;;;;;;;42.08;21.77;;;;;;;5.93;100.00;97859.59;5033958;28;20068;-77
2021/10/13 04:46:32;;;;;;;34.92;20.27;;;;;;;5.90;100.00;97859.31;5040657;28;20026;-76
2021/10/13 04:48:59;;;;;;;35.88;20.65;;;;;;;5.85;100.00;97872.84;5034681;28;20025;-76
2021/10/13 04:51:24;;;;;;;34.70;19.88;;;;;;;5.84;100.00;97876.66;5036674;28;20037;-74
2021/10/13 04:53:49;;;;;;;41.33;19.95;;;;;;;5.81;100.00;97882.59;5039908;28;20040;-78
2021/10/13 04:56:15;;;;;;;31.65;19.38;;;;;;;5.74;100.00;97895.59;5042927;28;20021;-76
2021/10/13 04:58:40;;;;;;;36.80;18.60;;;;;;;5.64;100.00;97903.72;5046354;28;20490;-78
2021/10/13 05:01:07;;;;;;;33.88;18.60;;;;;;;5.62;100.00;97905.84;5048900;28;20067;-79
2021/10/13 05:03:33;;;;;;;27.50;17.38;;;;;;;5.56;100.00;97915.06;5055944;28;20448;-81
2021/10/13 05:05:58;;;;;;;32.33;17.67;;;;;;;5.53;100.00;97907.44;5059776;28;20029;-82
2021/10/13 05:08:24;;;;;;;28.58;18.48;;;;;;;5.46;100.00;97910.41;5060844;28;20063;-86
2021/10/13 05:10:49;;;;;;;33.05;18.80;;;;;;;5.43;100.00;97912.81;5054749;28;20074;-76
2021/10/13 05:13:14;;;;;;;32.63;18.05;;;;;;;5.39;100.00;97912.53;5052570;28;20402;-74
2021/10/13 05:15:42;;;;;;;36.25;19.85;;;;;;;5.32;100.00;97915.50;5052506;28;20072;-75
2021/10/13 05:18:08;;;;;;;30.88;17.88;;;;;;;5.27;100.00;97920.88;5043289;28;20032;-73
2021/10/13 05:20:34;;;;;;;29.70;18.35;;;;;;;5.26;100.00;97927.34;5045298;28;20032;-74
2021/10/13 05:23:00;;;;;;;35.83;19.27;;;;;;;5.23;100.00;97922.47;5040753;28;20033;-75
2021/10/13 05:25:28;;;;;;;30.67;19.02;;;;;;;5.29;100.00;97936.88;5040116;28;20049;-73
2021/10/13 05:27:54;;;;;;;27.70;18.23;;;;;;;5.32;100.00;97939.91;5036604;28;20017;-73
2021/10/13 05:30:19;;;;;;;37.20;19.83;;;;;;;5.17;100.00;97937.06;5042780;28;20033;-74
2021/10/13 05:32:44;;;;;;;33.40;20.10;;;;;;;5.04;100.00;97945.69;5046524;28;20765;-74
2021/10/13 05:35:10;;;;;;;33.42;18.73;;;;;;;5.16;100.00;97957.16;5046607;28;20047;-74
2021/10/13 05:37:35;;;;;;;32.90;19.63;;;;;;;5.07;100.00;97947.03;5031962;28;20022;-75
2021/10/13 05:40:01;;;;;;;33.83;19.05;;;;;;;4.91;100.00;97937.97;5037392;28;20029;-75
2021/10/13 05:42:26;;;;;;;37.95;21.60;;;;;;;4.88;100.00;97941.22;5032105;28;20031;-69
2021/10/13 05:44:51;;;;;;;36.45;20.38;;;;;;;4.97;100.00;97960.50;5045913;28;20020;-82
2021/10/13 05:47:17;;;;;;;34.00;19.63;;;;;;;5.00;100.00;97958.09;5045282;28;20047;-85
2021/10/13 05:49:42;;;;;;;40.22;21.80;;;;;;;5.01;100.00;97973.28;5052502;28;20029;-83
2021/10/13 05:52:08;;;;;;;39.58;19.77;;;;;;;5.01;100.00;97964.34;5053990;28;20052;-80
2021/10/13 05:54:33;;;;;;;32.63;20.77;;;;;;;4.90;100.00;97971.56;5052545;28;20036;-80
2021/10/13 05:56:59;;;;;;;40.20;21.65;;;;;;;5.04;100.00;97975.50;5055549;28;20404;-83
2021/10/13 05:59:25;;;;;;;35.47;19.13;;;;;;;5.13;100.00;97981.25;5049552;28;20021;-84
2021/10/13 06:01:50;;;;;;;34.47;19.27;;;;;;;5.02;100.00;97991.16;5038514;28;20045;-83
2021/10/13 06:04:15;;;;;;;37.33;22.05;;;;;;;5.15;100.00;97992.63;5038056;28;20013;-82
2021/10/13 06:06:41;;;;;;;38.20;21.33;;;;;;;5.19;100.00;97997.28;5042573;28;20029;-85
2021/10/13 06:09:06;;;;;;;38.58;21.80;;;;;;;5.27;100.00;97999.50;5053320;28;20064;-87
2021/10/13 06:11:32;;;;;;;35.75;21.30;;;;;;;5.34;100.00;97994.69;5048693;28;20056;-85
2021/10/13 06:13:57;;;;;;;33.78;20.35;;;;;;;5.37;100.00;98002.28;5049554;28;20627;-86
2021/10/13 06:16:23;;;;;;;38.65;20.80;;;;;;;5.48;100.00;98005.09;5050214;28;20032;-84
2021/10/13 06:18:50;;;;;;;31.70;18.55;;;;;;;5.60;100.00;98020.09;5050616;28;20542;-83
2021/10/13 06:21:17;;;;;;;36.60;19.65;;;;;;;5.58;100.00;98003.22;5051591;28;20107;-82
2021/10/13 06:23:43;;;;;;;32.10;18.75;;;;;;;5.73;100.00;98016.88;5065670;28;20037;-86
2021/10/13 06:26:08;;;;;;;32.33;18.73;;;;;;;5.88;100.00;98021.63;5075511;28;20060;-85
2021/10/13 06:28:34;;;;;;;33.30;18.73;;;;;;;5.95;100.00;98033.06;5075182;28;20052;-84
2021/10/13 06:30:59;;;;;;;32.55;19.52;;;;;;;6.05;100.00;98027.69;5072992;28;20056;-85
2021/10/13 06:33:26;;;;;;;30.08;18.20;;;;;;;6.21;100.00;98029.38;5074309;28;20017;-86
2021/10/13 06:35:51;;;;;;;31.10;18.85;;;;;;;6.32;100.00;98028.34;5072724;28;20040;-83
2021/10/13 06:38:16;;;;;;;27.63;17.65;;;;;;;6.42;100.00;98044.66;5078886;28;21793;-79
2021/10/13 06:40:42;;;;;;;29.65;18.00;;;;;;;6.80;100.00;98059.72;5077936;28;20031;-80
2021/10/13 06:43:10;;;;;;;32.33;17.35;;;;;;;7.02;100.00;98055.97;5078689;28;20017;-84
2021/10/13 06:45:36;;;;;;;28.23;16.65;;;;;;;7.36;100.00;98063.31;5078545;28;20020;-82
2021/10/13 06:48:03;;;;;;;30.73;17.33;;;;;;;7.62;100.00;98063.31;5078330;28;20024;-82
2021/10/13 06:50:29;;;;;;;29.23;17.33;;;;;;;8.25;100.00;98065.38;5078404;28;20013;-81
2021/10/13 06:52:54;;;;;;;30.85;17.55;;;;;;;8.26;100.00;98064.31;5078167;28;20032;-84
2021/10/13 06:55:19;;;;;;;27.65;17.10;;;;;;;7.69;100.00;98080.19;5078517;28;20081;-82
2021/10/13 06:57:45;;;;;;;32.60;17.98;;;;;;;7.11;100.00;98074.19;5078318;28;20024;-78
2021/10/13 07:00:11;;;;;;;27.80;17.55;;;;;;;6.78;100.00;98070.06;5077364;28;20013;-80
2021/10/13 07:02:37;;;;;;;37.05;19.38;;;;;;;6.76;100.00;98090.44;5077976;28;20016;-80
2021/10/13 07:05:02;;;;;;;33.38;20.02;;;;;;;6.69;100.00;98081.72;5077915;28;20060;-83
2021/10/13 07:07:28;;;;;;;37.75;19.70;;;;;;;6.42;100.00;98087.34;5077276;28;20038;-82
2021/10/13 07:09:53;;;;;;;36.65;20.08;;;;;;;6.37;100.00;98100.88;5078038;28;20093;-78
2021/10/13 07:12:18;;;;;;;36.47;19.42;;;;;;;6.25;100.00;98082.09;5077924;28;20013;-79
2021/10/13 07:14:44;;;;;;;33.45;17.88;;;;;;;6.42;100.00;98104.44;5077744;28;20044;-80
2021/10/13 07:17:10;;;;;;;31.73;18.27;;;;;;;6.30;100.00;98095.69;5077955;28;20056;-85
2021/10/13 07:19:35;;;;;;;38.33;22.35;;;;;;;6.02;100.00;98122.41;5074922;28;20056;-82
2021/10/13 07:22:02;;;;;;;41.35;22.77;;;;;;;5.99;100.00;98125.63;5057974;28;20038;-78
2021/10/13 07:24:27;;;;;;;43.83;23.10;;;;;;;5.96;100.00;98107.16;5058213;28;20022;-78
2021/10/13 07:26:53;;;;;;;43.17;22.42;;;;;;;6.78;100.00;98126.31;5057879;28;20073;-76
2021/10/13 07:29:18;;;;;;;47.78;24.35;;;;;;;7.79;100.00;98123.75;5056490;28;20040;-84
2021/10/13 07:31:44;;;;;;;33.50;18.40;;;;;;;8.84;100.00;98130.88;5054999;28;20010;-82
2021/10/13 07:34:09;;;;;;;33.10;16.70;;;;;;;10.05;96.84;98121.84;5057036;28;20021;-80
2021/10/13 07:36:36;;;;;;;26.00;15.90;;;;;;;11.00;88.50;98134.75;5057460;28;20024;-80
2021/10/13 07:39:01;;;;;;;23.48;14.25;;;;;;;11.65;84.44;98139.28;5057621;28;20052;-78
2021/10/13 07:41:28;;;;;;;22.08;13.95;;;;;;;12.38;78.99;98146.88;5057660;28;20022;-80
2021/10/13 07:43:53;;;;;;;26.23;15.43;;;;;;;11.34;82.30;98160.03;5057065;28;20033;-80
2021/10/13 07:46:19;;;;;;;31.13;16.65;;;;;;;12.00;81.03;98156.31;5057659;28;20052;-81
2021/10/13 07:48:44;;;;;;;31.40;19.50;;;;;;;13.08;74.45;98157.59;5056659;28;20024;-84
2021/10/13 07:51:10;;;;;;;32.53;19.42;;;;;;;14.51;69.21;98178.75;5057547;28;20021;-78
2021/10/13 07:53:35;;;;;;;35.58;20.35;;;;;;;15.62;64.46;98176.44;5057737;28;20033;-83
2021/10/13 07:56:01;;;;;;;30.88;20.23;;;;;;;15.32;64.20;98182.81;5057584;28;20022;-80
2021/10/13 07:58:26;;;;;;;25.33;17.52;;;;;;;14.62;65.08;98171.84;5057479;28;20037;-81
2021/10/13 08:00:52;;;;;;;29.75;20.85;;;;;;;14.44;66.75;98182.75;5057363;28;20024;-80
2021/10/13 08:03:17;;;;;;;31.92;20.08;;;;;;;15.84;61.61;98181.81;5056768;28;20725;-80
2021/10/13 08:05:42;;;;;;;34.80;23.17;;;;;;;16.56;59.09;98183.88;5057355;28;20045;-82
2021/10/13 08:08:08;;;;;;;32.53;22.05;;;;;;;18.46;52.99;98199.03;5056885;28;20041;-78
2021/10/13 08:10:33;;;;;;;29.35;20.58;;;;;;;19.34;50.42;98189.41;5057393;28;20033;-78
2021/10/13 08:12:59;;;;;;;25.33;16.73;;;;;;;19.10;51.09;98195.75;5057342;28;20021;-81
2021/10/13 08:15:25;;;;;;;27.67;18.90;;;;;;;18.23;53.25;98183.13;5057373;28;20056;-77
2021/10/13 08:17:51;;;;;;;28.58;20.02;;;;;;;18.74;51.19;98199.25;5057401;28;20029;-82
2021/10/13 08:20:17;;;;;;;28.05;19.70;;;;;;;18.75;51.94;98194.53;5056967;28;20038;-83
2021/10/13 08:22:42;;;;;;;28.38;18.15;;;;;;;19.26;50.17;98200.25;5056880;28;20040;-83
2021/10/13 08:25:09;;;;;;;20.73;13.88;;;;;;;18.27;50.31;98203.44;5057352;28;20037;-80
2021/10/13 08:27:35;;;;;;;18.88;12.82;;;;;;;19.03;49.21;98212.16;5057307;28;20034;-77
2021/10/13 08:30:00;;;;;;;16.80;12.55;;;;;;;16.64;55.15;98187.75;5057306;28;20021;-82
2021/10/13 08:32:26;;;;;;;17.40;11.85;;;;;;;18.59;49.78;98197.13;5056769;28;20048;-80
2021/10/13 08:34:51;;;;;;;18.25;13.45;;;;;;;18.06;52.43;98184.06;5057269;28;20002;-80
2021/10/13 08:37:17;;;;;;;17.02;12.38;;;;;;;19.15;48.88;98204.66;5056458;28;20018;-81
2021/10/13 08:39:42;;;;;;;15.93;11.60;;;;;;;17.89;51.59;98198.03;5056655;28;20044;-82
2021/10/13 08:42:08;;;;;;;15.73;11.68;;;;;;;17.83;51.54;98191.91;5057261;28;20014;-78
2021/10/13 08:44:34;;;;;;;16.95;11.40;;;;;;;19.72;47.53;98185.13;5057153;28;20020;-80
2021/10/13 08:47:00;;;;;;;15.07;11.40;;;;;;;18.57;49.28;98191.13;5056146;28;20009;-78
2021/10/13 08:49:26;;;;;;;18.67;11.90;;;;;;;17.31;51.57;98205.22;5056767;28;20037;-83
2021/10/13 08:51:51;;;;;;;12.95;9.73;;;;;;;17.60;53.17;98198.91;5056579;28;20081;-80
2021/10/13 08:54:18;;;;;;;13.75;9.38;;;;;;;16.71;54.18;98182.53;5056357;28;20053;-78
2021/10/13 08:56:44;;;;;;;15.35;9.98;;;;;;;16.17;58.01;98201.44;5056621;28;20020;-80
2021/10/13 08:59:30;;;;;;;16.92;9.60;;;;;;;17.72;54.08;98201.75;5057022;28;20041;-77
2021/10/13 09:01:55;;;;;;;12.35;9.10;;;;;;;16.65;56.16;98204.00;5060007;28;20034;-81
2021/10/13 09:04:21;;;;;;;11.63;7.15;;;;;;;17.50;53.46;98196.50;5060612;28;20085;-80
2021/10/13 09:06:46;;;;;;;11.52;7.32;;;;;;;18.15;51.75;98213.31;5060415;28;20035;-80
2021/10/13 09:09:12;;;;;;;11.75;8.65;;;;;;;18.69;50.59;98196.72;5060564;28;20064;-86
2021/10/13 09:11:48;;;;;;;11.25;7.80;;;;;;;16.31;56.58;98206.78;5060119;28;20028;-79
2021/10/13 09:14:15;;;;;;;9.60;7.07;;;;;;;15.20;59.62;98199.97;5060249;28;20090;-84
2021/10/13 09:16:52;;;;;;;11.50;8.18;;;;;;;15.08;61.73;98197.00;5060418;28;20052;-78
2021/10/13 09:19:19;;;;;;;8.10;6.47;;;;;;;15.80;59.46;98202.88;5060270;28;20089;-84
2021/10/13 09:22:21;;;;;;;11.20;7.25;;;;;;;16.31;56.84;98191.03;5060085;28;20041;-81
2021/10/13 09:24:52;;;;;;;9.75;6.90;;;;;;;16.86;55.10;98202.16;5056128;28;20037;-79
2021/10/13 09:27:23;;;;;;;8.63;5.88;;;;;;;17.08;54.22;98204.66;5059424;28;20081;-78
2021/10/13 09:29:49;;;;;;;9.02;5.90;;;;;;;16.34;56.48;98189.56;5060220;28;20033;-81
2021/10/13 09:32:22;;;;;;;8.90;5.82;;;;;;;16.83;55.42;98202.00;5059994;28;20032;-80
2021/10/13 09:34:54;;;;;;;8.82;6.30;;;;;;;17.20;54.29;98190.13;5060120;28;20050;-80
2021/10/13 09:37:20;;;;;;;12.73;6.05;;;;;;;18.17;51.52;98204.66;5059545;28;20025;-81
2021/10/13 09:40:02;;;;;;;8.88;5.38;;;;;;;16.63;54.15;98191.66;5059848;28;20085;-78
2021/10/13 09:42:39;;;;;;;7.00;4.90;;;;;;;14.76;61.38;98203.66;5059524;28;20104;-82
2021/10/13 09:45:05;;;;;;;8.50;5.32;;;;;;;15.73;58.20;98191.50;5059687;28;20037;-79
2021/10/13 09:47:34;;;;;;;7.28;4.55;;;;;;;17.47;54.38;98188.88;5059682;28;20002;-82
2021/10/13 09:50:00;;;;;;;8.63;5.85;;;;;;;17.08;54.09;98192.78;5058629;28;20026;-82
2021/10/13 09:52:28;;;;;;;5.57;4.40;;;;;;;17.80;52.68;98197.28;5058717;28;20081;-79
2021/10/13 09:55:08;;;;;;;9.02;5.35;;;;;;;19.36;48.27;98195.44;5059598;28;20052;-85
2021/10/13 09:57:45;;;;;;;7.78;4.35;;;;;;;18.53;49.55;98188.25;5058632;28;20017;-80
2021/10/13 10:00:16;;;;;;;5.93;4.05;;;;;;;15.95;57.34;98191.38;5059196;28;20025;-80
2021/10/13 10:02:56;;;;;;;5.82;3.75;;;;;;;16.76;54.13;98191.44;5059384;28;20018;-82
2021/10/13 10:05:37;;;;;;;5.60;3.80;;;;;;;17.55;52.73;98196.31;5058823;28;20033;-81
2021/10/13 10:08:06;;;;;;;5.45;3.38;;;;;;;17.50;52.26;98200.06;5059399;28;21098;-84
2021/10/13 10:10:36;;;;;;;5.95;3.63;;;;;;;15.95;57.63;98194.13;5058881;28;20036;-86
2021/10/13 10:13:35;;;;;;;5.47;3.70;;;;;;;16.90;54.30;98197.59;5056238;28;20033;-85
2021/10/13 10:16:01;;;;;;;5.85;3.30;;;;;;;18.52;50.24;98207.97;5052844;28;20116;-86
2021/10/13 10:18:34;;;;;;;5.20;3.60;;;;;;;19.88;47.42;98198.28;5055853;28;20092;-87
2021/10/13 10:21:20;;;;;;;6.97;3.42;;;;;;;19.95;46.16;98204.88;5049101;28;20024;-83
2021/10/13 10:23:46;;;;;;;;;;;;;;;19.10;46.78;98204.06;5055415;28;20088;-84
2021/10/13 10:26:26;;;;;;;4.57;3.25;;;;;;;16.81;52.43;98199.56;5057919;28;19912;-82
2021/10/13 10:28:52;;;;;;;5.80;3.35;;;;;;;18.09;50.40;98202.78;5058493;28;20017;-78
2021/10/13 10:31:23;;;;;;;4.65;2.90;;;;;;;19.81;46.44;98204.44;5057550;28;20023;-85
2021/10/13 10:33:49;;;;;;;4.43;2.70;;;;;;;19.26;46.86;98205.03;5056242;28;20037;-84
2021/10/13 10:36:15;;;;;;;4.03;2.85;;;;;;;17.48;51.40;98207.06;5057639;28;20034;-82
2021/10/13 10:38:48;;;;;;;5.03;2.90;;;;;;;15.36;56.56;98203.09;5058354;28;20017;-83
2021/10/13 10:41:13;;;;;;;5.80;2.80;;;;;;;14.70;59.42;98210.44;5058557;28;20025;-81
2021/10/13 10:43:39;;;;;;;4.22;2.70;;;;;;;13.62;63.59;98187.78;5058596;28;20028;-80
2021/10/13 10:46:04;;;;;;;5.30;2.70;;;;;;;12.84;66.59;98185.25;5058188;28;20041;-78
2021/10/13 10:48:43;;;;;;;6.22;2.63;;;;;;;13.14;65.99;98194.84;5058092;28;20069;-77
2021/10/13 10:51:09;;;;;;;4.82;2.90;;;;;;;12.98;67.03;98201.72;5058589;28;20022;-81
2021/10/13 10:53:44;;;;;;;4.78;2.80;;;;;;;12.45;69.13;98206.84;5057968;28;20096;-78
2021/10/13 10:56:10;;;;;;;5.65;2.70;;;;;;;12.19;70.64;98193.56;5058696;28;20042;-78
2021/10/13 10:58:36;;;;;;;5.85;2.90;;;;;;;12.08;71.12;98185.81;5057811;28;20045;-78
2021/10/13 11:01:01;;;;;;;5.82;2.75;;;;;;;12.47;69.18;98199.94;5057939;28;20040;-82
2021/10/13 11:03:31;;;;;;;5.63;2.53;;;;;;;12.19;70.37;98198.22;5057924;28;20026;-78
2021/10/13 11:06:09;;;;;;;4.40;2.58;;;;;;;11.65;71.97;98196.84;5057531;28;20038;-82
2021/10/13 11:08:34;;;;;;;4.20;2.60;;;;;;;12.03;70.71;98192.16;5058059;28;20053;-81
2021/10/13 11:11:13;;;;;;;6.30;2.70;;;;;;;11.80;71.79;98193.91;5057930;28;20016;-79
2021/10/13 11:13:39;;;;;;;4.47;2.72;;;;;;;12.06;71.50;98197.06;5037825;28;20042;-82
2021/10/13 11:16:08;;;;;;;4.35;2.70;;;;;;;12.22;71.09;98183.91;5038077;28;20018;-83
2021/10/13 11:18:34;;;;;;;4.65;2.70;;;;;;;12.41;69.38;98190.16;5037947;28;20034;-84
2021/10/13 11:21:08;;;;;;;4.88;2.80;;;;;;;12.23;69.65;98193.78;5037938;28;20090;-81
2021/10/13 11:23:34;;;;;;;3.83;2.50;;;;;;;12.11;69.90;98168.75;5036926;28;20683;-80
2021/10/13 11:25:59;;;;;;;3.80;2.13;;;;;;;12.34;69.11;98187.81;5038523;28;20291;-82